Time;durP1;ratioP1;P1;durP2;ratioP2;P2;SDS_P1;SDS_P2;PMS_P1;PMS_P2;Temp;Humidity;BMP_temperature;BMP_pressure;BME280_temperature;BME280_humidity;BME280_pressure;Samples;Min_cycle;Max_cycle;Signal;HPM_P1;HPM_P2
2023/11/22 00:00:37;;;;;;;16.63;9.13;;;;;;;12.42;100.00;100927.66;2096995;28;20547;-64
2023/11/22 00:01:37;;;;;;;12.33;9.10;;;;;;;12.40;100.00;100932.84;2091358;28;20192;-64
2023/11/22 00:02:38;;;;;;;15.30;9.40;;;;;;;12.40;100.00;100930.06;2092270;28;20186;-63
2023/11/22 00:03:39;;;;;;;13.50;8.73;;;;;;;12.44;100.00;100930.75;2096809;28;20833;-64
2023/11/22 00:04:39;;;;;;;13.67;9.50;;;;;;;12.43;100.00;100942.31;2096977;28;20262;-64
2023/11/22 00:05:40;;;;;;;15.27;9.03;;;;;;;12.40;100.00;100938.41;2096801;28;20172;-64
2023/11/22 00:06:41;;;;;;;13.60;9.33;;;;;;;12.41;100.00;100934.41;2097473;28;20178;-63
2023/11/22 00:07:41;;;;;;;15.80;9.47;;;;;;;12.42;100.00;100935.97;2096961;28;20197;-64
2023/11/22 00:08:42;;;;;;;13.60;9.93;;;;;;;12.42;100.00;100935.19;2096589;28;20538;-64
2023/11/22 00:09:42;;;;;;;12.80;8.60;;;;;;;12.45;100.00;100945.44;2096656;28;20205;-63
2023/11/22 00:10:44;;;;;;;11.97;9.17;;;;;;;12.45;100.00;100942.66;2096212;28;20196;-64
2023/11/22 00:11:44;;;;;;;13.27;8.93;;;;;;;12.43;100.00;100936.75;2096472;28;20706;-64
2023/11/22 00:12:45;;;;;;;14.23;9.13;;;;;;;12.42;100.00;100935.19;2096889;28;20433;-64
2023/11/22 00:13:45;;;;;;;14.43;9.53;;;;;;;12.42;100.00;100941.53;2097819;28;20181;-64
2023/11/22 00:14:47;;;;;;;15.57;9.40;;;;;;;12.44;100.00;100933.53;2097121;28;20672;-64
2023/11/22 00:15:49;;;;;;;13.70;9.13;;;;;;;12.42;100.00;100946.31;2096976;28;20231;-64
2023/11/22 00:16:49;;;;;;;10.77;8.30;;;;;;;12.25;100.00;100923.31;2096512;28;20831;-64
2023/11/22 00:17:50;;;;;;;12.37;8.50;;;;;;;12.37;100.00;100938.50;2096852;28;20456;-63
2023/11/22 00:18:50;;;;;;;13.00;8.97;;;;;;;12.37;100.00;100936.50;2096455;28;20250;-64
2023/11/22 00:19:51;;;;;;;11.63;8.47;;;;;;;12.29;100.00;100937.91;2096621;28;20241;-64
2023/11/22 00:20:51;;;;;;;12.43;8.20;;;;;;;12.32;100.00;100936.25;2096668;28;20189;-64
2023/11/22 00:21:52;;;;;;;15.70;8.47;;;;;;;12.35;100.00;100935.38;2097574;28;20177;-64
2023/11/22 00:22:52;;;;;;;13.60;8.70;;;;;;;12.34;100.00;100937.38;2096836;28;20229;-64
2023/11/22 00:23:53;;;;;;;13.77;9.13;;;;;;;12.30;100.00;100931.13;2096414;28;20202;-64
2023/11/22 00:24:54;;;;;;;13.50;8.50;;;;;;;12.32;100.00;100934.25;2096531;28;20188;-64
2023/11/22 00:25:54;;;;;;;13.07;8.60;;;;;;;12.33;100.00;100937.81;2092506;28;20194;-64
2023/11/22 00:26:55;;;;;;;12.87;8.23;;;;;;;12.35;100.00;100946.50;2087586;28;20798;-64
2023/11/22 00:27:55;;;;;;;12.20;7.57;;;;;;;11.73;100.00;100849.69;2090234;28;20260;-64
2023/11/22 00:29:14;;;;;;;9.47;6.87;;;;;;;12.33;100.00;100940.59;2096217;28;20239;-64
2023/11/22 00:30:14;;;;;;;11.73;7.60;;;;;;;12.32;100.00;100944.59;2096717;28;20666;-64
2023/11/22 00:31:15;;;;;;;13.37;7.87;;;;;;;12.33;100.00;100941.38;2096722;28;20941;-64
2023/11/22 00:32:16;;;;;;;14.60;8.33;;;;;;;12.33;100.00;100937.81;2097477;28;20564;-64
2023/11/22 00:33:19;;;;;;;11.80;8.07;;;;;;;12.33;100.00;100940.59;2096477;28;20655;-64
2023/11/22 00:34:19;;;;;;;15.07;8.37;;;;;;;12.31;100.00;100946.59;2096619;28;20229;-64
2023/11/22 00:35:20;;;;;;;13.00;7.33;;;;;;;12.34;100.00;100951.28;2096782;28;20462;-64
2023/11/22 00:36:20;;;;;;;12.77;8.63;;;;;;;12.36;100.00;100951.63;2096221;28;20263;-63
2023/11/22 00:37:20;;;;;;;12.40;7.77;;;;;;;12.33;100.00;100952.50;2096613;28;20625;-64
2023/11/22 00:38:21;;;;;;;13.53;7.67;;;;;;;12.33;100.00;100957.25;2096118;28;20176;-64
2023/11/22 00:39:22;;;;;;;11.53;7.70;;;;;;;12.33;100.00;100954.47;2096291;28;20329;-64
2023/11/22 00:40:22;;;;;;;12.40;7.80;;;;;;;12.25;100.00;100945.53;2089333;28;20639;-63
2023/11/22 00:41:23;;;;;;;13.33;8.13;;;;;;;12.13;100.00;100929.59;2095713;28;20452;-63
2023/11/22 00:42:23;;;;;;;10.17;7.60;;;;;;;12.21;100.00;100942.09;2096711;28;20199;-64
2023/11/22 00:43:25;;;;;;;11.83;7.77;;;;;;;11.85;100.00;100890.63;2096354;28;20225;-64
2023/11/22 00:44:25;;;;;;;10.43;7.30;;;;;;;11.61;100.00;100853.16;2096165;28;20658;-64
2023/11/22 00:45:26;;;;;;;12.37;7.40;;;;;;;12.20;100.00;100945.31;2096582;28;20932;-64
2023/11/22 00:46:26;;;;;;;10.30;7.60;;;;;;;11.77;100.00;100883.69;2096286;28;20177;-63
2023/11/22 00:47:27;;;;;;;13.00;7.80;;;;;;;12.16;100.00;100945.41;2097460;28;20676;-64
2023/11/22 00:48:27;;;;;;;10.83;7.20;;;;;;;11.83;100.00;100884.75;2096212;28;20195;-64
2023/11/22 00:49:28;;;;;;;10.87;7.30;;;;;;;11.69;100.00;100860.84;2096333;28;20197;-63
2023/11/22 00:50:29;;;;;;;12.50;7.53;;;;;;;12.23;100.00;100949.97;2096651;28;20205;-64
2023/11/22 00:51:31;;;;;;;11.03;7.10;;;;;;;12.24;100.00;100954.34;2096687;28;20477;-64
2023/11/22 00:52:31;;;;;;;11.90;7.80;;;;;;;12.25;100.00;100953.88;2096072;28;20318;-64
2023/11/22 00:53:32;;;;;;;13.63;8.37;;;;;;;12.27;100.00;100956.22;2096185;28;20411;-64
2023/11/22 00:54:32;;;;;;;14.63;8.53;;;;;;;11.57;100.00;100850.44;2096738;28;20209;-64
2023/11/22 00:55:34;;;;;;;14.80;8.13;;;;;;;12.32;100.00;100953.72;2097341;28;20630;-63
2023/11/22 00:56:34;;;;;;;10.90;7.33;;;;;;;12.35;100.00;100952.06;2096219;28;20511;-64
2023/11/22 00:57:35;;;;;;;12.17;7.87;;;;;;;11.71;100.00;100849.31;2096415;28;20453;-64
2023/11/22 00:58:35;;;;;;;11.27;7.40;;;;;;;12.27;100.00;100943.13;2095983;28;20288;-63
2023/11/22 00:59:35;;;;;;;12.30;7.47;;;;;;;12.24;100.00;100954.34;2096299;28;20189;-64
2023/11/22 01:00:36;;;;;;;11.73;7.37;;;;;;;12.25;100.00;100944.78;2096718;28;20179;-64
2023/11/22 01:01:36;;;;;;;11.20;7.70;;;;;;;12.08;100.00;100927.34;2096720;28;20567;-64
2023/11/22 01:02:37;;;;;;;11.70;7.63;;;;;;;12.25;100.00;100944.78;2096614;28;20179;-64
2023/11/22 01:03:38;;;;;;;10.53;7.47;;;;;;;12.24;100.00;100948.78;2089097;28;20168;-64
2023/11/22 01:04:39;;;;;;;14.23;7.37;;;;;;;12.23;100.00;100947.97;2095530;28;20477;-64
2023/11/22 01:05:40;;;;;;;11.70;7.07;;;;;;;12.17;100.00;100949.72;2096666;28;20601;-64
2023/11/22 01:06:40;;;;;;;10.87;7.47;;;;;;;12.18;100.00;100945.72;2096024;28;20447;-64
2023/11/22 01:07:41;;;;;;;12.03;7.73;;;;;;;11.55;100.00;100852.88;2096505;28;20668;-64
2023/11/22 01:08:41;;;;;;;10.23;6.67;;;;;;;12.17;100.00;100954.50;2096023;28;20186;-64
2023/11/22 01:09:42;;;;;;;10.07;7.03;;;;;;;12.18;100.00;100951.28;2096288;28;20613;-65
2023/11/22 01:10:42;;;;;;;10.97;7.20;;;;;;;12.08;100.00;100937.66;2097419;28;20168;-65
2023/11/22 01:11:44;;;;;;;11.17;7.20;;;;;;;12.15;100.00;100943.06;2096398;28;20609;-64
2023/11/22 01:12:44;;;;;;;12.17;7.10;;;;;;;12.14;100.00;100952.59;2096686;28;20568;-64
2023/11/22 01:13:46;;;;;;;9.77;6.90;;;;;;;12.08;100.00;100948.75;2096499;28;20490;-64
2023/11/22 01:14:46;;;;;;;10.73;7.10;;;;;;;12.05;100.00;100944.84;2096030;28;20192;-64
2023/11/22 01:15:47;;;;;;;12.50;7.23;;;;;;;12.04;100.00;100940.53;2096513;28;20451;-63
2023/11/22 01:16:48;;;;;;;11.97;7.10;;;;;;;12.02;100.00;100937.41;2096157;28;20557;-64
2023/11/22 01:17:48;;;;;;;12.30;7.40;;;;;;;11.23;100.00;100827.84;2096378;28;20305;-64
2023/11/22 01:18:49;;;;;;;11.43;7.47;;;;;;;11.98;100.00;100933.13;2096911;28;20174;-64
2023/11/22 01:19:50;;;;;;;10.17;7.47;;;;;;;12.05;100.00;100939.31;2096390;28;20207;-64
2023/11/22 01:20:51;;;;;;;9.67;7.17;;;;;;;12.05;100.00;100944.84;2096432;28;20198;-63
2023/11/22 01:21:51;;;;;;;11.33;7.23;;;;;;;12.05;100.00;100939.31;2096287;28;20445;-63
2023/11/22 01:22:52;;;;;;;11.00;7.20;;;;;;;12.08;100.00;100938.44;2096098;28;20252;-65
2023/11/22 01:23:52;;;;;;;13.10;7.50;;;;;;;12.09;100.00;100934.44;2095994;28;20266;-64
2023/11/22 01:24:53;;;;;;;13.60;6.97;;;;;;;12.07;100.00;100933.31;2096408;28;20175;-64
2023/11/22 01:25:54;;;;;;;10.87;7.47;;;;;;;12.08;100.00;100934.88;2096566;28;20239;-64
2023/11/22 01:26:55;;;;;;;11.53;7.70;;;;;;;12.15;100.00;100935.47;2096777;28;20501;-64
2023/11/22 01:27:55;;;;;;;10.63;7.27;;;;;;;12.09;100.00;100919.78;2096588;28;20672;-64
2023/11/22 01:28:56;;;;;;;13.07;7.50;;;;;;;12.18;100.00;100933.81;2096220;28;20877;-63
2023/11/22 01:29:57;;;;;;;15.30;8.40;;;;;;;12.20;100.00;100934.19;2096441;28;20197;-64
2023/11/22 01:30:57;;;;;;;11.63;7.30;;;;;;;12.17;100.00;100927.50;2096612;28;20201;-64
2023/11/22 01:31:58;;;;;;;10.93;7.27;;;;;;;12.21;100.00;100928.19;2096543;28;20199;-64
2023/11/22 01:32:59;;;;;;;12.13;7.77;;;;;;;12.15;100.00;100915.25;2096269;28;20180;-64
2023/11/22 01:34:00;;;;;;;10.43;7.40;;;;;;;12.23;100.00;100925.75;2097284;28;20180;-64
2023/11/22 01:35:01;;;;;;;13.73;7.13;;;;;;;12.24;100.00;100930.09;2097111;28;20217;-64
2023/11/22 01:36:02;;;;;;;10.40;7.57;;;;;;;11.41;100.00;100794.13;2096706;28;20220;-64
2023/11/22 01:37:03;;;;;;;12.00;7.33;;;;;;;11.71;100.00;100846.56;2096008;28;20478;-64
2023/11/22 01:38:04;;;;;;;11.10;7.43;;;;;;;12.25;100.00;100922.56;2095614;28;20197;-64
2023/11/22 01:39:06;;;;;;;13.53;7.83;;;;;;;12.25;100.00;100928.88;2095493;28;20551;-63
2023/11/22 01:40:08;;;;;;;10.70;7.37;;;;;;;12.25;100.00;100925.31;2090190;28;20793;-64
2023/11/22 01:41:09;;;;;;;11.10;7.13;;;;;;;11.85;100.00;100869.22;2096538;28;20423;-64
2023/11/22 01:42:10;;;;;;;12.17;7.33;;;;;;;11.92;100.00;100869.03;2095767;28;20464;-63
2023/11/22 01:43:15;;;;;;;12.37;7.60;;;;;;;12.30;100.00;100920.00;2088743;28;20454;-63
2023/11/22 01:44:19;;;;;;;11.03;7.37;;;;;;;12.31;100.00;100921.59;2096045;28;20261;-63
2023/11/22 01:45:19;;;;;;;11.90;7.77;;;;;;;12.31;100.00;100920.78;2097720;28;20448;-63
2023/11/22 01:46:25;;;;;;;11.10;7.27;;;;;;;12.31;100.00;100918.81;2097824;28;20441;-63
2023/11/22 01:47:26;;;;;;;11.60;7.90;;;;;;;12.30;100.00;100917.22;2098162;28;20729;-64
2023/11/22 01:48:27;;;;;;;10.93;7.13;;;;;;;12.31;100.00;100924.38;2097129;28;20480;-64
2023/11/22 01:49:28;;;;;;;16.03;7.97;;;;;;;12.33;100.00;100916.38;2097731;28;20456;-64
2023/11/22 01:50:28;;;;;;;15.67;7.53;;;;;;;12.32;100.00;100923.16;2097886;28;20549;-64
2023/11/22 01:51:29;;;;;;;13.17;7.97;;;;;;;12.17;100.00;100896.94;2098097;28;20186;-64
2023/11/22 01:52:30;;;;;;;11.13;7.70;;;;;;;12.35;100.00;100913.16;2098783;28;20253;-64
2023/11/22 01:53:31;;;;;;;11.80;7.70;;;;;;;12.34;100.00;100915.13;2098124;28;20190;-64
2023/11/22 01:54:33;;;;;;;10.47;7.20;;;;;;;12.37;100.00;100913.50;2098172;28;20668;-63
2023/11/22 01:55:34;;;;;;;11.33;7.40;;;;;;;12.36;100.00;100918.28;2097841;28;20447;-63
2023/11/22 01:56:39;;;;;;;10.67;7.27;;;;;;;12.35;100.00;100913.91;2097640;28;20460;-64
2023/11/22 01:57:40;;;;;;;11.27;7.23;;;;;;;12.37;100.00;100919.84;2097965;28;20456;-64
2023/11/22 01:58:40;;;;;;;8.80;6.73;;;;;;;12.38;100.00;100924.19;2097743;28;20933;-64
2023/11/22 01:59:43;;;;;;;12.23;7.63;;;;;;;12.38;100.00;100920.59;2097643;28;20174;-64
2023/11/22 02:00:50;;;;;;;11.50;7.63;;;;;;;12.34;100.00;100923.47;2098622;28;20266;-64
2023/11/22 02:01:51;;;;;;;12.93;7.50;;;;;;;12.25;100.00;100900.31;2095896;28;20440;-63
2023/11/22 02:02:51;;;;;;;11.17;7.23;;;;;;;12.39;100.00;100917.38;2098435;28;20941;-64
2023/11/22 02:03:53;;;;;;;9.30;6.90;;;;;;;12.30;100.00;100913.69;2096732;28;20201;-63
2023/11/22 02:04:53;;;;;;;11.13;6.90;;;;;;;12.39;100.00;100928.50;2098101;28;20435;-64
2023/11/22 02:05:54;;;;;;;9.37;6.97;;;;;;;12.41;100.00;100928.06;2097491;28;20423;-64
2023/11/22 02:06:55;;;;;;;10.03;7.37;;;;;;;11.78;100.00;100829.72;2098294;28;20175;-63
2023/11/22 02:07:57;;;;;;;10.70;7.77;;;;;;;12.07;100.00;100878.56;2097305;28;20199;-64
2023/11/22 02:08:57;;;;;;;12.57;7.87;;;;;;;12.42;100.00;100930.44;2097447;28;20210;-63
2023/11/22 02:10:02;;;;;;;12.50;7.73;;;;;;;12.43;100.00;100934.75;2097896;28;20459;-64
2023/11/22 02:11:03;;;;;;;11.10;7.37;;;;;;;12.42;100.00;100927.66;2097976;28;20199;-64
2023/11/22 02:12:04;;;;;;;10.73;7.67;;;;;;;12.06;100.00;100871.44;2097766;28;20464;-64
2023/11/22 02:13:07;;;;;;;11.00;7.47;;;;;;;12.44;100.00;100929.97;2098043;28;20235;-63
2023/11/22 02:14:09;;;;;;;11.73;7.40;;;;;;;12.33;100.00;100912.78;2097708;28;20182;-63
2023/11/22 02:15:10;;;;;;;10.83;7.20;;;;;;;11.92;100.00;100846.00;2098815;28;20435;-64
2023/11/22 02:16:10;;;;;;;10.93;7.40;;;;;;;12.48;100.00;100927.88;2098183;28;20805;-64
2023/11/22 02:17:12;;;;;;;12.13;7.43;;;;;;;12.46;100.00;100928.31;2097628;28;20451;-63
2023/11/22 02:18:13;;;;;;;10.57;7.50;;;;;;;12.46;100.00;100922.75;2097778;28;20709;-64
2023/11/22 02:19:17;;;;;;;11.50;7.33;;;;;;;11.70;100.00;100812.47;2097113;28;20453;-64
2023/11/22 02:20:18;;;;;;;10.33;7.83;;;;;;;12.45;100.00;100918.41;2097857;28;20521;-64
2023/11/22 02:21:18;;;;;;;14.20;7.83;;;;;;;12.44;100.00;100941.88;2097287;28;20429;-64
2023/11/22 02:22:19;;;;;;;10.03;7.07;;;;;;;12.18;100.00;100898.50;2097903;28;20193;-64
2023/11/22 02:23:19;;;;;;;10.93;7.30;;;;;;;11.96;100.00;100860.59;2097687;28;20229;-64
2023/11/22 02:24:20;;;;;;;9.80;7.13;;;;;;;12.20;100.00;100895.28;2098451;28;20684;-64
2023/11/22 02:25:20;;;;;;;11.90;7.77;;;;;;;12.43;100.00;100928.41;2097862;28;20198;-64
2023/11/22 02:26:21;;;;;;;11.27;7.33;;;;;;;12.43;100.00;100926.41;2096947;28;20906;-63
2023/11/22 02:27:22;;;;;;;9.17;7.17;;;;;;;11.86;100.00;100844.97;2097645;28;20193;-64
2023/11/22 02:28:22;;;;;;;12.53;7.33;;;;;;;12.23;100.00;100911.88;2097540;28;20289;-64
2023/11/22 02:29:23;;;;;;;10.73;7.20;;;;;;;12.30;100.00;100924.81;2097657;28;20202;-64
2023/11/22 02:30:23;;;;;;;10.87;7.03;;;;;;;12.29;100.00;100924.00;2097790;28;20269;-63
2023/11/22 02:31:24;;;;;;;9.90;7.10;;;;;;;12.20;100.00;100921.06;2098610;28;20435;-64
2023/11/22 02:32:25;;;;;;;10.77;7.10;;;;;;;12.21;100.00;100935.75;2089540;28;20658;-64
2023/11/22 02:33:25;;;;;;;10.73;6.83;;;;;;;11.64;100.00;100844.72;2095581;28;20575;-64
2023/11/22 02:34:26;;;;;;;10.33;7.03;;;;;;;12.25;100.00;100928.88;2097492;28;20210;-64
2023/11/22 02:35:30;;;;;;;10.27;6.97;;;;;;;12.27;100.00;100929.22;2097443;28;20672;-64
2023/11/22 02:36:31;;;;;;;10.67;7.33;;;;;;;12.30;100.00;100930.34;2097272;28;20248;-64
2023/11/22 02:37:31;;;;;;;11.33;7.53;;;;;;;12.26;100.00;100921.31;2097474;28;20427;-64
2023/11/22 02:38:32;;;;;;;11.13;6.97;;;;;;;12.28;100.00;100930.78;2097398;28;20943;-63
2023/11/22 02:39:48;;;;;;;8.97;6.90;;;;;;;12.28;100.00;100930.00;2098171;28;20643;-63
2023/11/22 02:40:50;;;;;;;9.80;6.80;;;;;;;12.27;100.00;100925.66;2089929;28;20563;-64
2023/11/22 02:41:50;;;;;;;9.10;6.43;;;;;;;11.91;100.00;100870.25;2098470;28;20985;-63
2023/11/22 02:42:53;;;;;;;8.03;5.77;;;;;;;12.26;100.00;100916.56;2097675;28;20445;-64
2023/11/22 02:43:53;;;;;;;11.30;6.60;;;;;;;12.28;100.00;100919.66;2097754;28;20199;-63
2023/11/22 02:44:53;;;;;;;10.73;6.27;;;;;;;12.32;100.00;100919.56;2097702;28;20946;-64
2023/11/22 02:45:54;;;;;;;9.77;6.00;;;;;;;12.17;100.00;100899.72;2097763;28;20191;-64
2023/11/22 02:46:54;;;;;;;8.03;5.50;;;;;;;12.34;100.00;100919.94;2097209;28;20210;-63
2023/11/22 02:47:55;;;;;;;9.50;6.07;;;;;;;12.28;100.00;100905.78;2096930;28;20194;-63
2023/11/22 02:48:55;;;;;;;10.20;6.53;;;;;;;12.31;100.00;100918.81;2096412;28;20181;-63
2023/11/22 02:49:56;;;;;;;8.37;4.67;;;;;;;12.20;100.00;100918.28;2098249;28;20558;-64
2023/11/22 02:50:56;;;;;;;7.47;5.47;;;;;;;12.19;100.00;100918.75;2097155;28;20199;-63
2023/11/22 02:51:57;;;;;;;10.10;6.17;;;;;;;12.10;100.00;100905.44;2097727;28;20207;-64
2023/11/22 02:52:59;;;;;;;11.80;5.93;;;;;;;11.71;100.00;100843.78;2097735;28;20261;-64
2023/11/22 02:53:59;;;;;;;8.47;5.80;;;;;;;12.26;100.00;100933.22;2097361;28;20285;-63
2023/11/22 02:55:00;;;;;;;11.47;5.53;;;;;;;12.22;100.00;100926.97;2097401;28;20484;-64
2023/11/22 02:56:01;;;;;;;9.43;6.30;;;;;;;11.96;100.00;100905.81;2097476;28;20706;-64
2023/11/22 02:57:01;;;;;;;8.87;6.23;;;;;;;12.11;100.00;100911.78;2097204;28;20205;-63
2023/11/22 02:58:02;;;;;;;9.13;6.00;;;;;;;11.46;100.00;100813.03;2088947;28;20199;-64
2023/11/22 02:59:02;;;;;;;9.97;6.27;;;;;;;12.08;100.00;100910.66;2096032;28;20255;-63
2023/11/22 03:00:08;;;;;;;9.43;6.00;;;;;;;12.23;100.00;100936.88;2097233;28;20689;-64
2023/11/22 03:01:08;;;;;;;11.10;6.40;;;;;;;12.23;100.00;100941.63;2096938;28;20203;-63
2023/11/22 03:02:09;;;;;;;9.43;6.20;;;;;;;12.27;100.00;100939.56;2096940;28;20477;-64
2023/11/22 03:03:10;;;;;;;9.37;6.27;;;;;;;11.85;100.00;100873.97;2091565;28;20668;-64
2023/11/22 03:04:10;;;;;;;9.47;6.20;;;;;;;12.17;100.00;100933.06;2097468;28;20176;-63
2023/11/22 03:05:12;;;;;;;10.83;6.77;;;;;;;12.19;100.00;100929.84;2097762;28;20419;-64
2023/11/22 03:06:12;;;;;;;10.23;6.30;;;;;;;12.22;100.00;100935.31;2089923;28;20184;-63
2023/11/22 03:07:13;;;;;;;8.83;5.77;;;;;;;12.23;100.00;100934.09;2095778;28;20446;-64
2023/11/22 03:08:15;;;;;;;10.67;6.20;;;;;;;12.23;100.00;100936.09;2097361;28;20737;-64
2023/11/22 03:09:16;;;;;;;11.80;7.33;;;;;;;12.17;100.00;100938.63;2096832;28;20195;-63
2023/11/22 03:10:17;;;;;;;10.43;7.10;;;;;;;12.16;100.00;100937.06;2097187;28;20997;-63
2023/11/22 03:11:19;;;;;;;10.30;6.70;;;;;;;12.17;100.00;100940.59;2097227;28;20188;-63
2023/11/22 03:12:23;;;;;;;9.67;6.23;;;;;;;12.08;100.00;100935.66;2097508;28;20477;-63
2023/11/22 03:13:23;;;;;;;10.00;7.23;;;;;;;12.01;100.00;100938.63;2097292;28;20411;-63
2023/11/22 03:14:24;;;;;;;11.63;7.20;;;;;;;12.00;100.00;100933.50;2098209;28;20419;-63
2023/11/22 03:15:24;;;;;;;10.17;6.60;;;;;;;12.04;100.00;100946.06;2097528;28;20622;-63
2023/11/22 03:16:25;;;;;;;9.93;6.80;;;;;;;12.04;100.00;100940.53;2097131;28;20687;-63
2023/11/22 03:17:28;;;;;;;11.70;6.83;;;;;;;12.06;100.00;100940.88;2092090;28;20200;-64
2023/11/22 03:18:28;;;;;;;9.77;6.50;;;;;;;11.57;100.00;100877.38;2092669;28;20209;-63
2023/11/22 03:19:28;;;;;;;10.07;6.33;;;;;;;12.04;100.00;100954.41;2096893;28;20446;-63
2023/11/22 03:20:30;;;;;;;9.50;6.50;;;;;;;12.03;100.00;100943.72;2096692;28;20258;-64
2023/11/22 03:21:31;;;;;;;10.33;6.90;;;;;;;11.66;100.00;100895.06;2096734;28;20180;-63
2023/11/22 03:22:33;;;;;;;11.83;7.30;;;;;;;12.08;100.00;100960.66;2098141;28;20415;-64
2023/11/22 03:23:33;;;;;;;8.67;6.37;;;;;;;11.86;100.00;100934.63;2097304;28;20704;-63
2023/11/22 03:24:35;;;;;;;10.00;7.03;;;;;;;11.79;100.00;100914.59;2097331;28;20863;-63
2023/11/22 03:25:35;;;;;;;10.70;6.53;;;;;;;12.11;100.00;100968.16;2091764;28;20195;-64
2023/11/22 03:26:36;;;;;;;11.70;7.13;;;;;;;12.14;100.00;100972.06;2092248;28;20538;-64
2023/11/22 03:27:37;;;;;;;9.70;7.03;;;;;;;12.13;100.00;100976.03;2097065;28;23133;-63
2023/11/22 03:28:38;;;;;;;10.73;7.97;;;;;;;12.13;100.00;100978.81;2096059;28;20187;-64
2023/11/22 03:29:38;;;;;;;12.60;7.33;;;;;;;12.11;100.00;100970.13;2095947;28;20919;-65
2023/11/22 03:30:40;;;;;;;10.73;7.10;;;;;;;12.14;100.00;100966.50;2089816;28;20174;-64
2023/11/22 03:31:40;;;;;;;11.77;7.20;;;;;;;12.14;100.00;100972.06;2096863;28;20204;-64
2023/11/22 03:32:41;;;;;;;8.83;6.70;;;;;;;12.08;100.00;100968.22;2097370;28;20529;-63
2023/11/22 03:33:41;;;;;;;10.50;7.20;;;;;;;12.14;100.00;100977.59;2096819;28;20564;-64
2023/11/22 03:34:42;;;;;;;11.37;7.53;;;;;;;12.08;100.00;100962.66;2096494;28;20194;-64
2023/11/22 03:35:42;;;;;;;17.37;7.47;;;;;;;12.18;100.00;100975.50;2097339;28;20171;-64
2023/11/22 03:36:43;;;;;;;10.13;7.40;;;;;;;11.61;100.00;100886.44;2096819;28;20174;-64
2023/11/22 03:37:43;;;;;;;10.63;7.60;;;;;;;12.20;100.00;100975.88;2097965;28;20672;-63
2023/11/22 03:38:44;;;;;;;11.13;7.43;;;;;;;12.21;100.00;100972.66;2096726;28;20685;-64
2023/11/22 03:39:48;;;;;;;9.43;6.60;;;;;;;12.24;100.00;100971.78;2096880;28;20221;-64
2023/11/22 03:40:48;;;;;;;13.07;7.50;;;;;;;12.23;100.00;100980.53;2097381;28;20207;-63
2023/11/22 03:41:50;;;;;;;12.60;7.93;;;;;;;12.24;100.00;100982.88;2097321;28;20491;-63
2023/11/22 03:42:51;;;;;;;9.30;7.40;;;;;;;12.26;100.00;100974.13;2097213;28;20195;-64
2023/11/22 03:43:51;;;;;;;10.97;7.50;;;;;;;12.24;100.00;100971.78;2097234;28;20418;-63
2023/11/22 03:44:52;;;;;;;11.37;7.40;;;;;;;12.24;100.00;100976.56;2097077;28;20234;-64
2023/11/22 03:45:52;;;;;;;11.20;7.90;;;;;;;12.26;100.00;100972.13;2097905;28;20176;-63
2023/11/22 03:46:54;;;;;;;11.00;7.27;;;;;;;12.27;100.00;100973.69;2096607;28;20669;-63
2023/11/22 03:47:54;;;;;;;8.70;6.73;;;;;;;12.26;100.00;100980.47;2096904;28;20191;-63
2023/11/22 03:48:55;;;;;;;12.60;7.17;;;;;;;12.25;100.00;100976.09;2096758;28;20999;-63
2023/11/22 03:49:55;;;;;;;10.30;7.57;;;;;;;12.22;100.00;100979.78;2092475;28;20287;-63
2023/11/22 03:50:56;;;;;;;11.50;7.40;;;;;;;12.22;100.00;100974.22;2092023;28;20682;-63
2023/11/22 03:51:56;;;;;;;10.70;6.97;;;;;;;12.23;100.00;100991.66;2097222;28;20208;-63
2023/11/22 03:52:57;;;;;;;10.10;6.83;;;;;;;11.78;100.00;100918.59;2096280;28;20231;-63
2023/11/22 03:53:57;;;;;;;9.47;6.73;;;;;;;11.35;100.00;100859.69;2097878;28;20181;-63
2023/11/22 03:54:58;;;;;;;11.53;6.83;;;;;;;11.62;100.00;100899.13;2096974;28;20207;-63
2023/11/22 03:55:58;;;;;;;9.67;6.67;;;;;;;12.22;100.00;100987.31;2096469;28;20289;-63
2023/11/22 03:56:59;;;;;;;8.90;6.43;;;;;;;11.72;100.00;100909.19;2090569;28;20570;-63
2023/11/22 03:57:59;;;;;;;10.27;6.97;;;;;;;11.83;100.00;100934.72;2092443;28;20203;-63
2023/11/22 03:59:00;;;;;;;8.93;6.17;;;;;;;12.20;100.00;100975.88;2096588;28;20229;-63
2023/11/22 04:00:00;;;;;;;8.83;6.30;;;;;;;12.24;100.00;100982.13;2096255;28;20258;-63
2023/11/22 04:01:02;;;;;;;10.20;6.87;;;;;;;12.21;100.00;100981.00;2097822;28;20189;-63
2023/11/22 04:02:03;;;;;;;9.40;6.00;;;;;;;12.01;100.00;100960.06;2089571;28;20692;-64
2023/11/22 04:03:04;;;;;;;10.80;6.30;;;;;;;11.13;100.00;100837.19;2095957;28;20874;-64
2023/11/22 04:04:04;;;;;;;10.07;6.73;;;;;;;11.47;100.00;100893.09;2096986;28;20471;-63
2023/11/22 04:05:07;;;;;;;9.30;6.77;;;;;;;12.06;100.00;100982.56;2096991;28;20732;-63
2023/11/22 04:06:07;;;;;;;10.10;6.03;;;;;;;12.07;100.00;101003.56;2096921;28;20195;-63
2023/11/22 04:07:08;;;;;;;9.13;6.40;;;;;;;11.21;100.00;100858.03;2096421;28;20426;-63
2023/11/22 04:08:09;;;;;;;10.63;6.90;;;;;;;12.04;100.00;100990.53;2096266;28;20245;-64
2023/11/22 04:09:12;;;;;;;9.07;6.47;;;;;;;12.03;100.00;100997.28;2096709;28;20187;-64
2023/11/22 04:10:12;;;;;;;8.97;6.60;;;;;;;12.05;100.00;101000.41;2097727;28;20422;-63
2023/11/22 04:11:13;;;;;;;9.03;6.17;;;;;;;12.07;100.00;101000.78;2096980;28;20454;-64
2023/11/22 04:12:14;;;;;;;9.77;6.77;;;;;;;12.11;100.00;101000.69;2097028;28;20232;-64
2023/11/22 04:13:14;;;;;;;10.90;6.33;;;;;;;12.13;100.00;101003.81;2096968;28;20192;-64
2023/11/22 04:14:15;;;;;;;9.23;6.00;;;;;;;11.57;100.00;100905.94;2097074;28;20202;-64
2023/11/22 04:15:15;;;;;;;8.60;6.43;;;;;;;11.76;100.00;100951.53;2096975;28;20744;-63
2023/11/22 04:16:17;;;;;;;8.93;5.90;;;;;;;12.16;100.00;101005.72;2096513;28;20216;-63
2023/11/22 04:17:18;;;;;;;10.27;6.30;;;;;;;12.15;100.00;101009.72;2097576;28;20182;-63
2023/11/22 04:18:18;;;;;;;7.60;5.37;;;;;;;12.10;100.00;101004.69;2096584;28;20826;-64
2023/11/22 04:19:19;;;;;;;7.80;6.00;;;;;;;12.12;100.00;101013.34;2096397;28;20457;-64
2023/11/22 04:20:19;;;;;;;9.40;6.10;;;;;;;12.12;100.00;101013.34;2096904;28;20205;-63
2023/11/22 04:21:20;;;;;;;10.23;5.80;;;;;;;12.11;100.00;101009.81;2096765;28;20205;-63
2023/11/22 04:22:20;;;;;;;8.53;5.70;;;;;;;12.10;100.00;101010.25;2096276;28;20234;-64
2023/11/22 04:23:21;;;;;;;9.20;5.70;;;;;;;12.12;100.00;101013.34;2096223;28;20208;-63
2023/11/22 04:24:21;;;;;;;11.80;6.03;;;;;;;12.11;100.00;101011.81;2096734;28;20188;-63
2023/11/22 04:25:23;;;;;;;9.93;5.57;;;;;;;12.14;100.00;101013.72;2097616;28;20182;-64
2023/11/22 04:26:24;;;;;;;9.17;6.23;;;;;;;12.14;100.00;101010.94;2096108;28;20202;-64
2023/11/22 04:27:25;;;;;;;7.43;5.50;;;;;;;12.06;100.00;101004.78;2097005;28;20485;-63
2023/11/22 04:28:26;;;;;;;11.27;5.87;;;;;;;11.80;100.00;100961.38;2096219;28;20460;-63
2023/11/22 04:29:26;;;;;;;8.77;6.03;;;;;;;12.00;100.00;100995.38;2096381;28;20229;-64
2023/11/22 04:30:27;;;;;;;9.20;6.07;;;;;;;12.16;100.00;101028.75;2096310;28;27540;-63
2023/11/22 04:31:27;;;;;;;9.13;5.63;;;;;;;12.15;100.00;101026.41;2096419;28;20183;-63
2023/11/22 04:32:28;;;;;;;9.07;5.63;;;;;;;12.16;100.00;101037.09;2096772;28;20179;-63
2023/11/22 04:33:29;;;;;;;8.27;5.40;;;;;;;11.87;100.00;100986.19;2097443;28;20179;-63
2023/11/22 04:34:29;;;;;;;8.43;5.50;;;;;;;12.16;100.00;101030.72;2090599;28;20445;-63
2023/11/22 04:35:34;;;;;;;7.73;5.40;;;;;;;12.15;100.00;101032.72;2096690;28;20722;-63
2023/11/22 04:36:34;;;;;;;7.27;5.30;;;;;;;12.02;100.00;101019.94;2096454;28;20669;-63
2023/11/22 04:37:34;;;;;;;8.87;5.43;;;;;;;12.09;100.00;101023.34;2096864;28;20458;-64
2023/11/22 04:38:35;;;;;;;8.50;5.60;;;;;;;12.02;100.00;101011.63;2096413;28;20195;-63